sensor_id;sensor_type;location;lat;lon;timestamp;P1;durP1;ratioP1;P2;durP2;ratioP2
23636;SDS011;11995;50.842;4.456;2022-12-19T00:01:23;38.85;;;17.98;;
23636;SDS011;11995;50.842;4.456;2022-12-19T00:03:54;38.48;;;18.30;;
23636;SDS011;11995;50.842;4.456;2022-12-19T00:06:24;40.38;;;18.90;;
23636;SDS011;11995;50.842;4.456;2022-12-19T00:08:53;36.30;;;18.48;;
23636;SDS011;11995;50.842;4.456;2022-12-19T00:11:22;38.63;;;18.37;;
23636;SDS011;11995;50.842;4.456;2022-12-19T00:13:50;42.70;;;17.82;;
23636;SDS011;11995;50.842;4.456;2022-12-19T00:16:19;37.78;;;18.30;;
23636;SDS011;11995;50.842;4.456;2022-12-19T00:18:48;34.65;;;16.70;;
23636;SDS011;11995;50.842;4.456;2022-12-19T00:21:18;38.65;;;18.23;;
23636;SDS011;11995;50.842;4.456;2022-12-19T00:23:48;43.23;;;20.32;;
23636;SDS011;11995;50.842;4.456;2022-12-19T00:26:17;37.03;;;17.32;;
23636;SDS011;11995;50.842;4.456;2022-12-19T00:28:47;35.38;;;17.60;;
23636;SDS011;11995;50.842;4.456;2022-12-19T00:31:17;36.83;;;16.93;;
23636;SDS011;11995;50.842;4.456;2022-12-19T00:33:45;38.23;;;18.12;;
23636;SDS011;11995;50.842;4.456;2022-12-19T00:36:19;38.73;;;20.43;;
23636;SDS011;11995;50.842;4.456;2022-12-19T00:38:45;35.63;;;16.87;;
23636;SDS011;11995;50.842;4.456;2022-12-19T00:41:17;41.60;;;18.20;;
23636;SDS011;11995;50.842;4.456;2022-12-19T00:43:56;38.90;;;17.92;;
23636;SDS011;11995;50.842;4.456;2022-12-19T00:46:25;35.08;;;16.65;;
23636;SDS011;11995;50.842;4.456;2022-12-19T00:48:53;30.43;;;16.42;;
23636;SDS011;11995;50.842;4.456;2022-12-19T00:51:23;39.50;;;18.40;;
23636;SDS011;11995;50.842;4.456;2022-12-19T00:53:53;33.67;;;16.57;;
23636;SDS011;11995;50.842;4.456;2022-12-19T00:56:22;32.58;;;16.73;;
23636;SDS011;11995;50.842;4.456;2022-12-19T00:58:52;36.65;;;16.93;;
23636;SDS011;11995;50.842;4.456;2022-12-19T01:01:21;37.80;;;16.97;;
23636;SDS011;11995;50.842;4.456;2022-12-19T01:03:51;36.08;;;17.57;;
23636;SDS011;11995;50.842;4.456;2022-12-19T01:06:20;37.13;;;16.50;;
23636;SDS011;11995;50.842;4.456;2022-12-19T01:08:47;50.58;;;31.30;;
23636;SDS011;11995;50.842;4.456;2022-12-19T01:11:15;42.05;;;18.65;;
23636;SDS011;11995;50.842;4.456;2022-12-19T01:13:42;38.48;;;15.98;;
23636;SDS011;11995;50.842;4.456;2022-12-19T01:16:11;41.02;;;18.35;;
23636;SDS011;11995;50.842;4.456;2022-12-19T01:21:07;37.73;;;19.27;;
23636;SDS011;11995;50.842;4.456;2022-12-19T01:23:36;34.78;;;17.00;;
23636;SDS011;11995;50.842;4.456;2022-12-19T01:26:03;33.75;;;18.37;;
23636;SDS011;11995;50.842;4.456;2022-12-19T01:28:31;28.75;;;16.37;;
23636;SDS011;11995;50.842;4.456;2022-12-19T01:30:58;34.23;;;17.15;;
23636;SDS011;11995;50.842;4.456;2022-12-19T01:33:26;29.07;;;15.60;;
23636;SDS011;11995;50.842;4.456;2022-12-19T01:35:53;33.35;;;16.45;;
23636;SDS011;11995;50.842;4.456;2022-12-19T01:38:21;29.37;;;14.70;;
23636;SDS011;11995;50.842;4.456;2022-12-19T01:40:55;29.75;;;15.48;;
23636;SDS011;11995;50.842;4.456;2022-12-19T01:43:20;28.62;;;15.13;;
23636;SDS011;11995;50.842;4.456;2022-12-19T01:45:49;40.08;;;24.55;;
23636;SDS011;11995;50.842;4.456;2022-12-19T01:48:20;27.20;;;15.35;;
23636;SDS011;11995;50.842;4.456;2022-12-19T01:53:20;36.15;;;19.20;;
23636;SDS011;11995;50.842;4.456;2022-12-19T01:55:50;26.97;;;14.90;;
23636;SDS011;11995;50.842;4.456;2022-12-19T01:58:19;30.75;;;15.13;;
23636;SDS011;11995;50.842;4.456;2022-12-19T02:00:47;31.37;;;15.85;;
23636;SDS011;11995;50.842;4.456;2022-12-19T02:03:21;27.13;;;15.00;;
23636;SDS011;11995;50.842;4.456;2022-12-19T02:05:52;32.35;;;17.62;;
23636;SDS011;11995;50.842;4.456;2022-12-19T02:08:21;29.15;;;14.73;;
23636;SDS011;11995;50.842;4.456;2022-12-19T02:10:50;38.90;;;20.25;;
23636;SDS011;11995;50.842;4.456;2022-12-19T02:13:17;37.40;;;20.35;;
23636;SDS011;11995;50.842;4.456;2022-12-19T02:18:18;32.30;;;17.70;;
23636;SDS011;11995;50.842;4.456;2022-12-19T02:37:49;30.90;;;14.58;;
23636;SDS011;11995;50.842;4.456;2022-12-19T02:40:16;33.88;;;16.25;;
23636;SDS011;11995;50.842;4.456;2022-12-19T02:42:49;36.10;;;17.73;;
23636;SDS011;11995;50.842;4.456;2022-12-19T02:45:19;26.60;;;14.58;;
23636;SDS011;11995;50.842;4.456;2022-12-19T02:47:48;29.52;;;15.63;;
23636;SDS011;11995;50.842;4.456;2022-12-19T02:50:17;30.70;;;16.15;;
23636;SDS011;11995;50.842;4.456;2022-12-19T02:52:46;26.17;;;14.18;;
23636;SDS011;11995;50.842;4.456;2022-12-19T02:55:16;28.47;;;14.70;;
23636;SDS011;11995;50.842;4.456;2022-12-19T03:00:47;31.02;;;15.55;;
23636;SDS011;11995;50.842;4.456;2022-12-19T03:03:35;28.32;;;16.48;;
23636;SDS011;11995;50.842;4.456;2022-12-19T03:06:08;31.95;;;16.57;;
23636;SDS011;11995;50.842;4.456;2022-12-19T03:08:51;31.52;;;16.27;;
23636;SDS011;11995;50.842;4.456;2022-12-19T03:11:21;32.78;;;17.82;;
23636;SDS011;11995;50.842;4.456;2022-12-19T03:14:05;31.65;;;16.70;;
23636;SDS011;11995;50.842;4.456;2022-12-19T03:16:34;33.58;;;17.95;;
23636;SDS011;11995;50.842;4.456;2022-12-19T03:19:03;34.10;;;17.50;;
23636;SDS011;11995;50.842;4.456;2022-12-19T03:21:40;32.13;;;17.20;;
23636;SDS011;11995;50.842;4.456;2022-12-19T03:24:15;30.82;;;16.87;;
23636;SDS011;11995;50.842;4.456;2022-12-19T03:26:48;30.82;;;16.17;;
23636;SDS011;11995;50.842;4.456;2022-12-19T03:29:52;31.20;;;16.65;;
23636;SDS011;11995;50.842;4.456;2022-12-19T03:32:20;33.15;;;16.52;;
23636;SDS011;11995;50.842;4.456;2022-12-19T03:34:58;32.50;;;16.85;;
23636;SDS011;11995;50.842;4.456;2022-12-19T03:37:30;28.25;;;16.40;;
23636;SDS011;11995;50.842;4.456;2022-12-19T03:40:00;27.87;;;16.00;;
23636;SDS011;11995;50.842;4.456;2022-12-19T03:42:30;30.95;;;16.35;;
23636;SDS011;11995;50.842;4.456;2022-12-19T03:45:04;35.28;;;16.20;;
23636;SDS011;11995;50.842;4.456;2022-12-19T03:47:37;32.08;;;15.95;;
23636;SDS011;11995;50.842;4.456;2022-12-19T03:50:10;30.17;;;16.15;;
23636;SDS011;11995;50.842;4.456;2022-12-19T03:52:40;31.23;;;15.55;;
23636;SDS011;11995;50.842;4.456;2022-12-19T03:55:25;32.40;;;15.98;;
23636;SDS011;11995;50.842;4.456;2022-12-19T03:58:10;29.67;;;15.72;;
23636;SDS011;11995;50.842;4.456;2022-12-19T04:00:41;31.07;;;13.95;;
23636;SDS011;11995;50.842;4.456;2022-12-19T04:03:14;26.50;;;14.83;;
23636;SDS011;11995;50.842;4.456;2022-12-19T04:05:43;23.05;;;13.50;;
23636;SDS011;11995;50.842;4.456;2022-12-19T04:08:13;31.37;;;14.98;;
23636;SDS011;11995;50.842;4.456;2022-12-19T04:10:53;26.97;;;15.08;;
23636;SDS011;11995;50.842;4.456;2022-12-19T04:13:26;26.77;;;14.50;;
23636;SDS011;11995;50.842;4.456;2022-12-19T04:18:40;23.87;;;14.78;;
23636;SDS011;11995;50.842;4.456;2022-12-19T04:21:16;22.90;;;12.95;;
23636;SDS011;11995;50.842;4.456;2022-12-19T04:23:48;26.05;;;13.90;;
23636;SDS011;11995;50.842;4.456;2022-12-19T04:26:18;24.82;;;14.20;;
23636;SDS011;11995;50.842;4.456;2022-12-19T04:28:51;24.67;;;14.68;;
23636;SDS011;11995;50.842;4.456;2022-12-19T04:31:20;24.35;;;14.65;;
23636;SDS011;11995;50.842;4.456;2022-12-19T04:33:48;24.45;;;14.43;;
23636;SDS011;11995;50.842;4.456;2022-12-19T04:36:16;24.20;;;13.90;;
23636;SDS011;11995;50.842;4.456;2022-12-19T04:38:43;21.25;;;13.65;;
23636;SDS011;11995;50.842;4.456;2022-12-19T04:41:11;24.47;;;13.40;;
23636;SDS011;11995;50.842;4.456;2022-12-19T04:43:38;22.67;;;13.20;;
23636;SDS011;11995;50.842;4.456;2022-12-19T04:46:06;24.18;;;13.53;;
23636;SDS011;11995;50.842;4.456;2022-12-19T04:48:34;20.95;;;12.43;;
23636;SDS011;11995;50.842;4.456;2022-12-19T04:51:03;22.00;;;13.58;;
23636;SDS011;11995;50.842;4.456;2022-12-19T04:53:31;25.15;;;13.28;;
23636;SDS011;11995;50.842;4.456;2022-12-19T04:56:02;21.50;;;13.30;;
23636;SDS011;11995;50.842;4.456;2022-12-19T04:58:32;20.15;;;12.10;;
23636;SDS011;11995;50.842;4.456;2022-12-19T05:01:05;24.77;;;11.70;;
23636;SDS011;11995;50.842;4.456;2022-12-19T05:03:35;21.17;;;11.90;;
23636;SDS011;11995;50.842;4.456;2022-12-19T05:06:08;19.87;;;13.25;;
23636;SDS011;11995;50.842;4.456;2022-12-19T05:08:34;19.55;;;11.05;;
23636;SDS011;11995;50.842;4.456;2022-12-19T05:11:03;20.10;;;10.98;;
23636;SDS011;11995;50.842;4.456;2022-12-19T05:13:31;20.45;;;11.20;;
23636;SDS011;11995;50.842;4.456;2022-12-19T05:16:01;20.90;;;12.10;;
23636;SDS011;11995;50.842;4.456;2022-12-19T05:18:33;18.00;;;10.85;;
23636;SDS011;11995;50.842;4.456;2022-12-19T05:21:03;19.10;;;11.80;;
23636;SDS011;11995;50.842;4.456;2022-12-19T05:23:31;19.15;;;11.45;;
23636;SDS011;11995;50.842;4.456;2022-12-19T05:25:59;18.27;;;10.55;;
23636;SDS011;11995;50.842;4.456;2022-12-19T05:28:27;16.00;;;10.10;;
23636;SDS011;11995;50.842;4.456;2022-12-19T05:31:03;20.92;;;12.00;;
23636;SDS011;11995;50.842;4.456;2022-12-19T05:33:38;18.77;;;11.60;;
23636;SDS011;11995;50.842;4.456;2022-12-19T05:36:07;24.25;;;11.35;;
23636;SDS011;11995;50.842;4.456;2022-12-19T05:41:06;19.52;;;11.90;;
23636;SDS011;11995;50.842;4.456;2022-12-19T05:43:39;21.42;;;10.98;;
23636;SDS011;11995;50.842;4.456;2022-12-19T05:46:07;18.20;;;11.30;;
23636;SDS011;11995;50.842;4.456;2022-12-19T05:48:35;21.35;;;11.10;;
23636;SDS011;11995;50.842;4.456;2022-12-19T05:51:04;17.73;;;12.10;;
23636;SDS011;11995;50.842;4.456;2022-12-19T05:53:34;20.15;;;12.03;;
23636;SDS011;11995;50.842;4.456;2022-12-19T05:56:02;21.62;;;12.90;;
23636;SDS011;11995;50.842;4.456;2022-12-19T05:58:30;19.55;;;12.63;;
23636;SDS011;11995;50.842;4.456;2022-12-19T06:01:10;19.52;;;12.65;;
23636;SDS011;11995;50.842;4.456;2022-12-19T06:03:35;18.92;;;12.33;;
23636;SDS011;11995;50.842;4.456;2022-12-19T06:06:03;19.32;;;11.75;;
23636;SDS011;11995;50.842;4.456;2022-12-19T06:08:32;21.87;;;12.00;;
23636;SDS011;11995;50.842;4.456;2022-12-19T06:11:00;17.73;;;11.50;;
23636;SDS011;11995;50.842;4.456;2022-12-19T06:13:30;19.50;;;12.03;;
23636;SDS011;11995;50.842;4.456;2022-12-19T06:16:05;18.48;;;12.13;;
23636;SDS011;11995;50.842;4.456;2022-12-19T06:18:35;22.37;;;11.45;;
23636;SDS011;11995;50.842;4.456;2022-12-19T06:21:04;18.55;;;11.65;;
23636;SDS011;11995;50.842;4.456;2022-12-19T06:23:34;18.80;;;11.20;;
23636;SDS011;11995;50.842;4.456;2022-12-19T06:28:30;19.17;;;11.18;;
23636;SDS011;11995;50.842;4.456;2022-12-19T06:30:59;21.62;;;11.80;;
23636;SDS011;11995;50.842;4.456;2022-12-19T06:33:29;17.00;;;10.68;;
23636;SDS011;11995;50.842;4.456;2022-12-19T06:35:58;16.00;;;11.00;;
23636;SDS011;11995;50.842;4.456;2022-12-19T06:38:27;19.40;;;11.43;;
23636;SDS011;11995;50.842;4.456;2022-12-19T06:40:56;18.67;;;10.95;;
23636;SDS011;11995;50.842;4.456;2022-12-19T06:43:42;14.83;;;10.13;;
23636;SDS011;11995;50.842;4.456;2022-12-19T06:46:10;19.65;;;12.25;;
23636;SDS011;11995;50.842;4.456;2022-12-19T06:48:37;19.90;;;11.30;;
23636;SDS011;11995;50.842;4.456;2022-12-19T06:51:05;14.53;;;10.10;;
23636;SDS011;11995;50.842;4.456;2022-12-19T06:53:32;19.12;;;11.55;;
23636;SDS011;11995;50.842;4.456;2022-12-19T06:56:00;17.20;;;10.83;;
23636;SDS011;11995;50.842;4.456;2022-12-19T06:58:29;14.47;;;10.53;;
23636;SDS011;11995;50.842;4.456;2022-12-19T07:00:56;15.40;;;10.28;;
23636;SDS011;11995;50.842;4.456;2022-12-19T07:03:25;13.58;;;10.38;;
23636;SDS011;11995;50.842;4.456;2022-12-19T07:05:54;16.77;;;9.83;;
23636;SDS011;11995;50.842;4.456;2022-12-19T07:08:22;17.67;;;9.58;;
23636;SDS011;11995;50.842;4.456;2022-12-19T07:10:49;16.65;;;10.28;;
23636;SDS011;11995;50.842;4.456;2022-12-19T07:13:20;14.58;;;9.40;;
23636;SDS011;11995;50.842;4.456;2022-12-19T07:15:47;15.25;;;9.13;;
23636;SDS011;11995;50.842;4.456;2022-12-19T07:18:16;14.80;;;8.70;;
23636;SDS011;11995;50.842;4.456;2022-12-19T07:20:44;11.48;;;8.75;;
23636;SDS011;11995;50.842;4.456;2022-12-19T07:23:13;12.90;;;8.60;;
23636;SDS011;11995;50.842;4.456;2022-12-19T07:25:44;15.28;;;9.30;;
23636;SDS011;11995;50.842;4.456;2022-12-19T07:28:12;17.60;;;9.15;;
23636;SDS011;11995;50.842;4.456;2022-12-19T07:30:41;13.88;;;8.65;;
23636;SDS011;11995;50.842;4.456;2022-12-19T07:35:37;13.60;;;7.85;;
23636;SDS011;11995;50.842;4.456;2022-12-19T07:38:05;17.85;;;8.83;;
23636;SDS011;11995;50.842;4.456;2022-12-19T07:43:01;12.20;;;7.58;;
23636;SDS011;11995;50.842;4.456;2022-12-19T07:45:35;16.55;;;8.30;;
23636;SDS011;11995;50.842;4.456;2022-12-19T07:48:04;14.58;;;7.80;;
23636;SDS011;11995;50.842;4.456;2022-12-19T07:50:32;17.42;;;8.78;;
23636;SDS011;11995;50.842;4.456;2022-12-19T07:53:01;15.67;;;7.53;;
23636;SDS011;11995;50.842;4.456;2022-12-19T07:55:29;13.20;;;7.72;;
23636;SDS011;11995;50.842;4.456;2022-12-19T07:57:58;14.47;;;7.67;;
23636;SDS011;11995;50.842;4.456;2022-12-19T08:00:25;9.48;;;6.75;;
23636;SDS011;11995;50.842;4.456;2022-12-19T08:02:53;11.00;;;7.55;;
23636;SDS011;11995;50.842;4.456;2022-12-19T08:05:20;12.80;;;7.35;;
23636;SDS011;11995;50.842;4.456;2022-12-19T08:07:48;10.88;;;6.58;;
23636;SDS011;11995;50.842;4.456;2022-12-19T08:10:16;10.10;;;7.10;;
23636;SDS011;11995;50.842;4.456;2022-12-19T08:12:44;9.90;;;6.85;;
23636;SDS011;11995;50.842;4.456;2022-12-19T08:15:11;12.60;;;6.45;;
23636;SDS011;11995;50.842;4.456;2022-12-19T08:17:39;14.20;;;7.40;;
23636;SDS011;11995;50.842;4.456;2022-12-19T08:20:07;12.85;;;6.53;;
23636;SDS011;11995;50.842;4.456;2022-12-19T08:22:38;13.48;;;7.80;;
23636;SDS011;11995;50.842;4.456;2022-12-19T08:25:05;9.95;;;6.75;;
23636;SDS011;11995;50.842;4.456;2022-12-19T08:27:33;8.45;;;6.20;;
23636;SDS011;11995;50.842;4.456;2022-12-19T08:30:02;12.73;;;7.05;;
23636;SDS011;11995;50.842;4.456;2022-12-19T08:32:30;9.58;;;6.03;;
23636;SDS011;11995;50.842;4.456;2022-12-19T08:34:58;10.63;;;7.00;;
23636;SDS011;11995;50.842;4.456;2022-12-19T08:37:25;11.25;;;7.12;;
23636;SDS011;11995;50.842;4.456;2022-12-19T08:39:53;10.48;;;6.92;;
23636;SDS011;11995;50.842;4.456;2022-12-19T08:42:20;14.83;;;6.92;;
23636;SDS011;11995;50.842;4.456;2022-12-19T08:44:48;10.75;;;6.78;;
23636;SDS011;11995;50.842;4.456;2022-12-19T08:47:15;10.20;;;6.55;;
23636;SDS011;11995;50.842;4.456;2022-12-19T08:49:43;10.88;;;6.75;;
23636;SDS011;11995;50.842;4.456;2022-12-19T08:52:10;10.98;;;6.60;;
23636;SDS011;11995;50.842;4.456;2022-12-19T08:54:39;8.70;;;6.20;;
23636;SDS011;11995;50.842;4.456;2022-12-19T08:57:08;9.90;;;5.83;;
23636;SDS011;11995;50.842;4.456;2022-12-19T08:59:35;10.10;;;6.42;;
23636;SDS011;11995;50.842;4.456;2022-12-19T09:02:03;8.73;;;5.85;;
23636;SDS011;11995;50.842;4.456;2022-12-19T09:04:30;12.43;;;5.92;;
23636;SDS011;11995;50.842;4.456;2022-12-19T09:06:58;8.63;;;5.72;;
23636;SDS011;11995;50.842;4.456;2022-12-19T09:09:25;9.50;;;5.87;;
23636;SDS011;11995;50.842;4.456;2022-12-19T09:11:53;10.98;;;5.33;;
23636;SDS011;11995;50.842;4.456;2022-12-19T09:14:20;10.78;;;5.97;;
23636;SDS011;11995;50.842;4.456;2022-12-19T09:16:48;7.65;;;5.20;;
23636;SDS011;11995;50.842;4.456;2022-12-19T09:19:16;9.40;;;5.62;;
23636;SDS011;11995;50.842;4.456;2022-12-19T09:21:44;12.53;;;5.95;;
23636;SDS011;11995;50.842;4.456;2022-12-19T09:24:12;7.65;;;5.70;;
23636;SDS011;11995;50.842;4.456;2022-12-19T09:26:39;11.55;;;5.72;;
23636;SDS011;11995;50.842;4.456;2022-12-19T09:29:07;9.50;;;5.45;;
23636;SDS011;11995;50.842;4.456;2022-12-19T09:31:34;7.25;;;5.85;;
23636;SDS011;11995;50.842;4.456;2022-12-19T09:34:02;8.38;;;5.28;;
23636;SDS011;11995;50.842;4.456;2022-12-19T09:36:29;11.10;;;6.58;;
23636;SDS011;11995;50.842;4.456;2022-12-19T09:38:57;16.57;;;6.92;;
23636;SDS011;11995;50.842;4.456;2022-12-19T09:47:18;12.35;;;6.35;;
23636;SDS011;11995;50.842;4.456;2022-12-19T09:49:48;11.97;;;6.28;;
23636;SDS011;11995;50.842;4.456;2022-12-19T09:52:29;7.87;;;5.62;;
23636;SDS011;11995;50.842;4.456;2022-12-19T09:55:05;10.75;;;5.75;;
23636;SDS011;11995;50.842;4.456;2022-12-19T09:57:46;12.47;;;5.87;;
23636;SDS011;11995;50.842;4.456;2022-12-19T10:00:35;9.95;;;5.60;;
23636;SDS011;11995;50.842;4.456;2022-12-19T10:06:04;8.80;;;5.95;;
23636;SDS011;11995;50.842;4.456;2022-12-19T10:08:32;10.80;;;6.10;;
23636;SDS011;11995;50.842;4.456;2022-12-19T10:11:09;8.73;;;5.40;;
23636;SDS011;11995;50.842;4.456;2022-12-19T10:22:15;10.28;;;5.85;;
23636;SDS011;11995;50.842;4.456;2022-12-19T10:27:52;10.35;;;4.92;;
23636;SDS011;11995;50.842;4.456;2022-12-19T10:30:35;8.03;;;5.08;;
23636;SDS011;11995;50.842;4.456;2022-12-19T10:35:40;6.25;;;4.37;;
23636;SDS011;11995;50.842;4.456;2022-12-19T10:46:12;9.58;;;4.58;;
23636;SDS011;11995;50.842;4.456;2022-12-19T10:48:44;7.67;;;5.10;;
23636;SDS011;11995;50.842;4.456;2022-12-19T10:51:20;8.03;;;3.92;;
23636;SDS011;11995;50.842;4.456;2022-12-19T10:53:51;5.28;;;3.77;;
23636;SDS011;11995;50.842;4.456;2022-12-19T10:56:23;8.25;;;4.10;;
23636;SDS011;11995;50.842;4.456;2022-12-19T10:58:53;4.90;;;3.58;;
23636;SDS011;11995;50.842;4.456;2022-12-19T11:01:25;6.95;;;3.55;;
23636;SDS011;11995;50.842;4.456;2022-12-19T11:04:18;6.33;;;3.37;;
23636;SDS011;11995;50.842;4.456;2022-12-19T11:09:35;4.62;;;3.00;;
23636;SDS011;11995;50.842;4.456;2022-12-19T11:12:11;5.45;;;3.65;;
23636;SDS011;11995;50.842;4.456;2022-12-19T11:14:40;4.17;;;3.10;;
23636;SDS011;11995;50.842;4.456;2022-12-19T11:17:26;6.62;;;3.42;;
23636;SDS011;11995;50.842;4.456;2022-12-19T11:20:23;6.03;;;3.12;;
23636;SDS011;11995;50.842;4.456;2022-12-19T11:22:37;7.62;;;3.47;;
23636;SDS011;11995;50.842;4.456;2022-12-19T11:25:12;7.05;;;3.40;;
23636;SDS011;11995;50.842;4.456;2022-12-19T11:27:44;8.38;;;3.17;;
23636;SDS011;11995;50.842;4.456;2022-12-19T11:30:20;3.45;;;3.08;;
23636;SDS011;11995;50.842;4.456;2022-12-19T11:33:05;6.05;;;3.05;;
23636;SDS011;11995;50.842;4.456;2022-12-19T11:35:53;7.50;;;3.55;;
23636;SDS011;11995;50.842;4.456;2022-12-19T11:38:52;6.50;;;3.45;;
23636;SDS011;11995;50.842;4.456;2022-12-19T11:41:15;4.78;;;2.92;;
23636;SDS011;11995;50.842;4.456;2022-12-19T11:43:43;7.30;;;2.98;;
23636;SDS011;11995;50.842;4.456;2022-12-19T11:52:01;5.40;;;2.77;;
23636;SDS011;11995;50.842;4.456;2022-12-19T11:54:33;5.37;;;3.10;;
23636;SDS011;11995;50.842;4.456;2022-12-19T11:57:02;6.10;;;3.52;;
23636;SDS011;11995;50.842;4.456;2022-12-19T11:59:30;5.20;;;3.30;;
23636;SDS011;11995;50.842;4.456;2022-12-19T12:07:37;5.08;;;3.45;;
23636;SDS011;11995;50.842;4.456;2022-12-19T12:10:15;6.05;;;3.30;;
23636;SDS011;11995;50.842;4.456;2022-12-19T12:15:49;7.28;;;3.17;;
23636;SDS011;11995;50.842;4.456;2022-12-19T12:18:33;4.97;;;2.90;;
23636;SDS011;11995;50.842;4.456;2022-12-19T12:21:04;4.33;;;3.00;;
23636;SDS011;11995;50.842;4.456;2022-12-19T12:23:55;6.15;;;2.92;;
23636;SDS011;11995;50.842;4.456;2022-12-19T12:31:59;4.75;;;3.40;;
23636;SDS011;11995;50.842;4.456;2022-12-19T12:34:48;5.08;;;2.37;;
23636;SDS011;11995;50.842;4.456;2022-12-19T12:42:51;6.83;;;2.65;;
23636;SDS011;11995;50.842;4.456;2022-12-19T12:45:29;5.47;;;2.72;;
23636;SDS011;11995;50.842;4.456;2022-12-19T12:48:13;7.17;;;3.02;;
23636;SDS011;11995;50.842;4.456;2022-12-19T12:50:39;5.05;;;3.15;;
23636;SDS011;11995;50.842;4.456;2022-12-19T12:53:07;4.78;;;2.95;;
23636;SDS011;11995;50.842;4.456;2022-12-19T12:55:38;4.35;;;3.33;;
23636;SDS011;11995;50.842;4.456;2022-12-19T13:01:15;4.78;;;2.55;;
23636;SDS011;11995;50.842;4.456;2022-12-19T13:06:39;5.30;;;2.67;;
23636;SDS011;11995;50.842;4.456;2022-12-19T13:11:48;5.42;;;2.75;;
23636;SDS011;11995;50.842;4.456;2022-12-19T13:17:10;3.15;;;2.42;;
23636;SDS011;11995;50.842;4.456;2022-12-19T13:25:01;3.52;;;2.70;;
23636;SDS011;11995;50.842;4.456;2022-12-19T13:27:45;4.00;;;2.40;;
23636;SDS011;11995;50.842;4.456;2022-12-19T13:30:11;3.77;;;2.60;;
23636;SDS011;11995;50.842;4.456;2022-12-19T13:38:30;5.87;;;2.80;;
23636;SDS011;11995;50.842;4.456;2022-12-19T13:40:28;4.45;;;2.95;;
23636;SDS011;11995;50.842;4.456;2022-12-19T13:46:19;7.78;;;3.65;;
23636;SDS011;11995;50.842;4.456;2022-12-19T13:48:49;5.33;;;3.33;;
23636;SDS011;11995;50.842;4.456;2022-12-19T13:51:19;4.72;;;2.85;;
23636;SDS011;11995;50.842;4.456;2022-12-19T13:53:50;4.42;;;2.75;;
23636;SDS011;11995;50.842;4.456;2022-12-19T13:56:17;6.05;;;4.28;;
23636;SDS011;11995;50.842;4.456;2022-12-19T13:58:50;6.65;;;3.10;;
23636;SDS011;11995;50.842;4.456;2022-12-19T14:01:25;5.65;;;3.33;;
23636;SDS011;11995;50.842;4.456;2022-12-19T14:03:58;9.28;;;3.58;;
23636;SDS011;11995;50.842;4.456;2022-12-19T14:06:38;7.83;;;2.90;;
23636;SDS011;11995;50.842;4.456;2022-12-19T14:11:56;6.12;;;3.10;;
23636;SDS011;11995;50.842;4.456;2022-12-19T14:14:26;8.23;;;2.87;;
23636;SDS011;11995;50.842;4.456;2022-12-19T14:17:12;5.83;;;3.22;;
23636;SDS011;11995;50.842;4.456;2022-12-19T14:19:45;9.25;;;3.17;;
23636;SDS011;11995;50.842;4.456;2022-12-19T14:24:53;15.53;;;8.68;;
23636;SDS011;11995;50.842;4.456;2022-12-19T14:27:28;5.70;;;3.27;;
23636;SDS011;11995;50.842;4.456;2022-12-19T14:29:59;3.90;;;2.90;;
23636;SDS011;11995;50.842;4.456;2022-12-19T14:32:29;10.78;;;4.65;;
23636;SDS011;11995;50.842;4.456;2022-12-19T14:37:32;6.20;;;3.40;;
23636;SDS011;11995;50.842;4.456;2022-12-19T14:40:07;8.20;;;3.60;;
23636;SDS011;11995;50.842;4.456;2022-12-19T14:42:37;5.78;;;3.02;;
23636;SDS011;11995;50.842;4.456;2022-12-19T14:45:32;8.00;;;3.07;;
23636;SDS011;11995;50.842;4.456;2022-12-19T14:48:22;5.97;;;3.08;;
23636;SDS011;11995;50.842;4.456;2022-12-19T14:50:49;6.65;;;3.22;;
23636;SDS011;11995;50.842;4.456;2022-12-19T14:53:20;6.87;;;3.45;;
23636;SDS011;11995;50.842;4.456;2022-12-19T14:55:59;11.00;;;3.85;;
23636;SDS011;11995;50.842;4.456;2022-12-19T14:58:30;5.03;;;3.17;;
23636;SDS011;11995;50.842;4.456;2022-12-19T15:01:01;7.15;;;3.62;;
23636;SDS011;11995;50.842;4.456;2022-12-19T15:03:32;6.53;;;3.62;;
23636;SDS011;11995;50.842;4.456;2022-12-19T15:06:12;6.78;;;3.20;;
23636;SDS011;11995;50.842;4.456;2022-12-19T15:08:35;6.90;;;3.75;;
23636;SDS011;11995;50.842;4.456;2022-12-19T15:11:04;4.97;;;3.15;;
23636;SDS011;11995;50.842;4.456;2022-12-19T15:13:49;5.47;;;2.90;;
23636;SDS011;11995;50.842;4.456;2022-12-19T15:18:57;10.65;;;3.85;;
23636;SDS011;11995;50.842;4.456;2022-12-19T15:21:27;6.17;;;3.15;;
23636;SDS011;11995;50.842;4.456;2022-12-19T15:23:56;7.33;;;3.47;;
23636;SDS011;11995;50.842;4.456;2022-12-19T15:26:28;6.37;;;3.02;;
23636;SDS011;11995;50.842;4.456;2022-12-19T15:28:57;8.75;;;3.52;;
23636;SDS011;11995;50.842;4.456;2022-12-19T15:31:36;6.65;;;3.08;;
23636;SDS011;11995;50.842;4.456;2022-12-19T15:34:27;5.20;;;2.95;;
23636;SDS011;11995;50.842;4.456;2022-12-19T15:36:56;5.83;;;3.45;;
23636;SDS011;11995;50.842;4.456;2022-12-19T15:39:24;6.17;;;3.72;;
23636;SDS011;11995;50.842;4.456;2022-12-19T15:41:54;7.67;;;3.40;;
23636;SDS011;11995;50.842;4.456;2022-12-19T15:46:58;5.37;;;3.60;;
23636;SDS011;11995;50.842;4.456;2022-12-19T15:49:27;5.78;;;3.60;;
23636;SDS011;11995;50.842;4.456;2022-12-19T15:51:56;6.22;;;3.10;;
23636;SDS011;11995;50.842;4.456;2022-12-19T15:54:24;7.72;;;3.30;;
23636;SDS011;11995;50.842;4.456;2022-12-19T15:56:52;5.60;;;3.10;;
23636;SDS011;11995;50.842;4.456;2022-12-19T15:59:22;4.87;;;3.15;;
23636;SDS011;11995;50.842;4.456;2022-12-19T16:01:54;6.35;;;3.45;;
23636;SDS011;11995;50.842;4.456;2022-12-19T16:04:24;7.28;;;3.60;;
23636;SDS011;11995;50.842;4.456;2022-12-19T16:06:52;7.28;;;4.50;;
23636;SDS011;11995;50.842;4.456;2022-12-19T16:09:20;5.83;;;3.90;;
23636;SDS011;11995;50.842;4.456;2022-12-19T16:12:10;5.22;;;3.95;;
23636;SDS011;11995;50.842;4.456;2022-12-19T16:14:38;7.15;;;3.72;;
23636;SDS011;11995;50.842;4.456;2022-12-19T16:17:09;8.10;;;4.90;;
23636;SDS011;11995;50.842;4.456;2022-12-19T16:19:37;7.37;;;3.40;;
23636;SDS011;11995;50.842;4.456;2022-12-19T16:22:25;8.98;;;3.58;;
23636;SDS011;11995;50.842;4.456;2022-12-19T16:24:49;6.25;;;3.47;;
23636;SDS011;11995;50.842;4.456;2022-12-19T16:27:28;4.45;;;3.25;;
23636;SDS011;11995;50.842;4.456;2022-12-19T16:29:57;6.87;;;3.37;;
23636;SDS011;11995;50.842;4.456;2022-12-19T16:32:28;5.12;;;3.33;;
23636;SDS011;11995;50.842;4.456;2022-12-19T16:35:10;6.08;;;3.70;;
23636;SDS011;11995;50.842;4.456;2022-12-19T16:37:34;7.95;;;3.60;;
23636;SDS011;11995;50.842;4.456;2022-12-19T16:40:04;7.58;;;4.03;;
23636;SDS011;11995;50.842;4.456;2022-12-19T16:42:36;5.78;;;3.83;;
23636;SDS011;11995;50.842;4.456;2022-12-19T16:45:04;4.97;;;3.52;;
23636;SDS011;11995;50.842;4.456;2022-12-19T16:47:32;14.03;;;4.42;;
23636;SDS011;11995;50.842;4.456;2022-12-19T16:49:59;7.95;;;4.20;;
23636;SDS011;11995;50.842;4.456;2022-12-19T16:52:30;9.70;;;3.75;;
23636;SDS011;11995;50.842;4.456;2022-12-19T16:54:57;7.03;;;3.87;;
23636;SDS011;11995;50.842;4.456;2022-12-19T16:57:25;12.05;;;5.83;;
23636;SDS011;11995;50.842;4.456;2022-12-19T16:59:52;9.33;;;3.65;;
23636;SDS011;11995;50.842;4.456;2022-12-19T17:05:08;9.88;;;3.87;;
23636;SDS011;11995;50.842;4.456;2022-12-19T17:07:37;6.25;;;3.62;;
23636;SDS011;11995;50.842;4.456;2022-12-19T17:10:05;5.87;;;3.73;;
23636;SDS011;11995;50.842;4.456;2022-12-19T17:12:35;5.83;;;3.47;;
23636;SDS011;11995;50.842;4.456;2022-12-19T17:15:06;7.10;;;3.50;;
23636;SDS011;11995;50.842;4.456;2022-12-19T17:17:36;6.22;;;3.45;;